Kezdőlap
METAR-TAF:

METAR-TAF

Repülőterek :

Nassau, Bahama-szigetek

földrajzi szélesség: 25-03N, földrajzi hosszúság: 077-28W, magasság: 3 m

Jelenlegi meteorológiai megfigyelések

A jelentés 5 perccel ezelõtt készült, 05:00 UTC
Keleti szél 5 kt
Hőmérséklet 23°C
Páratartalom 73%
Légköri nyomás 1020 hPa
Látótávolság 10 km, vagy több
Kevés felhő 2500 lábon

METAR: MYNN 090500Z 09005KT 9999 FEW025 23/18 A3013

Idő: 00:05 (05:05 UTC)

Előrejelzés

A jelentés 6 órával és 35 perccel ezelõtt készült, 22:30 UTC
Az előrejelzés 09-én 00 óra UTC és 09-én 24 óra UTC között érvényes
Keleti szél 5 kt
Látótávolság 10 km, vagy több
Kevés felhő 3000 lábon
09-én 12 óra UTC és 09-én 14 óra UTC között fokozatosan kialakuló
Kelet-délkeleti szél 12 kt
Látótávolság 10 km, vagy több
Szórványos felhőzet 3000 lábon

TAF: MYNN 082230Z 0900/0924 08005KT 9999 FEW030 BECMG 0912/0914 12012KT 9999 SCT030

Meteorológiai megfigyelések és előrejelzések több, mint 4000 repülőtéren (METAR és TAF jelentéseket).

A térképen piros és sárga pontok jelzik az elérhető meteorológiai állomásokat.

Mozgassa az egeret a pont fölött, hogy megjelenjen az állomás neve.

Azután kattintson az időjárási megfigyelések és előrejelzések megtekintéséhez.

A térkép megváltoztatása: kattintson a fekete keresztel jelölt zöld gombra ráközelítéshez, a vonallal jelölt zöld gombra távolításhoz, vagy a zöld nyilakra a szomszédos térképek eléréséhez.


METAR-TAF: